sensor_id;sensor_type;location;lat;lon;timestamp;P1;durP1;ratioP1;P2;durP2;ratioP2
9918;SDS011;4998;51.024;13.828;2022-10-10T00:01:13;2.80;;;2.50;;
9918;SDS011;4998;51.024;13.828;2022-10-10T00:03:42;2.53;;;2.13;;
9918;SDS011;4998;51.024;13.828;2022-10-10T00:06:09;2.50;;;2.30;;
9918;SDS011;4998;51.024;13.828;2022-10-10T00:08:37;2.50;;;2.30;;
9918;SDS011;4998;51.024;13.828;2022-10-10T00:11:05;11.13;;;2.10;;
9918;SDS011;4998;51.024;13.828;2022-10-10T00:13:32;3.40;;;2.50;;
9918;SDS011;4998;51.024;13.828;2022-10-10T00:15:59;2.57;;;2.37;;
9918;SDS011;4998;51.024;13.828;2022-10-10T00:18:26;5.60;;;2.23;;
9918;SDS011;4998;51.024;13.828;2022-10-10T00:20:55;3.57;;;2.20;;
9918;SDS011;4998;51.024;13.828;2022-10-10T00:23:22;2.63;;;2.40;;
9918;SDS011;4998;51.024;13.828;2022-10-10T00:25:49;3.23;;;2.07;;
9918;SDS011;4998;51.024;13.828;2022-10-10T00:28:17;2.40;;;2.00;;
9918;SDS011;4998;51.024;13.828;2022-10-10T00:30:44;4.40;;;2.93;;
9918;SDS011;4998;51.024;13.828;2022-10-10T00:33:11;3.73;;;2.47;;
9918;SDS011;4998;51.024;13.828;2022-10-10T00:35:39;3.93;;;2.00;;
9918;SDS011;4998;51.024;13.828;2022-10-10T00:38:07;2.60;;;2.10;;
9918;SDS011;4998;51.024;13.828;2022-10-10T00:40:35;3.30;;;2.10;;
9918;SDS011;4998;51.024;13.828;2022-10-10T00:43:10;2.13;;;1.80;;
9918;SDS011;4998;51.024;13.828;2022-10-10T00:45:39;2.57;;;2.00;;
9918;SDS011;4998;51.024;13.828;2022-10-10T00:48:09;3.60;;;2.23;;
9918;SDS011;4998;51.024;13.828;2022-10-10T00:50:41;3.17;;;2.10;;
9918;SDS011;4998;51.024;13.828;2022-10-10T00:53:13;2.40;;;2.20;;
9918;SDS011;4998;51.024;13.828;2022-10-10T00:55:42;3.10;;;2.00;;
9918;SDS011;4998;51.024;13.828;2022-10-10T00:58:09;5.63;;;2.70;;
9918;SDS011;4998;51.024;13.828;2022-10-10T01:00:37;3.60;;;2.20;;
9918;SDS011;4998;51.024;13.828;2022-10-10T01:03:04;3.00;;;2.60;;
9918;SDS011;4998;51.024;13.828;2022-10-10T01:05:31;4.40;;;2.33;;
9918;SDS011;4998;51.024;13.828;2022-10-10T01:07:59;3.17;;;2.00;;
9918;SDS011;4998;51.024;13.828;2022-10-10T01:10:29;3.00;;;2.23;;
9918;SDS011;4998;51.024;13.828;2022-10-10T01:13:02;2.73;;;2.10;;
9918;SDS011;4998;51.024;13.828;2022-10-10T01:15:43;2.40;;;1.70;;
9918;SDS011;4998;51.024;13.828;2022-10-10T01:18:17;3.13;;;1.97;;
9918;SDS011;4998;51.024;13.828;2022-10-10T01:20:56;2.70;;;2.03;;
9918;SDS011;4998;51.024;13.828;2022-10-10T01:23:50;2.57;;;1.90;;
9918;SDS011;4998;51.024;13.828;2022-10-10T01:26:54;2.93;;;2.10;;
9918;SDS011;4998;51.024;13.828;2022-10-10T01:29:42;3.30;;;2.23;;
9918;SDS011;4998;51.024;13.828;2022-10-10T01:32:14;5.40;;;2.30;;
9918;SDS011;4998;51.024;13.828;2022-10-10T01:34:47;2.40;;;2.17;;
9918;SDS011;4998;51.024;13.828;2022-10-10T01:37:23;1.70;;;1.60;;
9918;SDS011;4998;51.024;13.828;2022-10-10T01:39:59;2.90;;;1.80;;
9918;SDS011;4998;51.024;13.828;2022-10-10T01:42:35;2.80;;;2.00;;
9918;SDS011;4998;51.024;13.828;2022-10-10T01:45:07;5.30;;;2.10;;
9918;SDS011;4998;51.024;13.828;2022-10-10T01:47:35;4.17;;;2.23;;
9918;SDS011;4998;51.024;13.828;2022-10-10T01:50:02;3.10;;;2.03;;
9918;SDS011;4998;51.024;13.828;2022-10-10T01:52:34;3.23;;;1.87;;
9918;SDS011;4998;51.024;13.828;2022-10-10T01:55:18;3.03;;;1.93;;
9918;SDS011;4998;51.024;13.828;2022-10-10T01:58:01;2.50;;;1.80;;
9918;SDS011;4998;51.024;13.828;2022-10-10T02:00:39;4.57;;;2.13;;
9918;SDS011;4998;51.024;13.828;2022-10-10T02:03:12;2.80;;;1.80;;
9918;SDS011;4998;51.024;13.828;2022-10-10T02:05:43;2.93;;;2.10;;
9918;SDS011;4998;51.024;13.828;2022-10-10T02:08:14;2.40;;;1.70;;
9918;SDS011;4998;51.024;13.828;2022-10-10T02:10:47;3.87;;;1.80;;
9918;SDS011;4998;51.024;13.828;2022-10-10T02:13:17;2.00;;;1.73;;
9918;SDS011;4998;51.024;13.828;2022-10-10T02:15:47;6.13;;;2.20;;
9918;SDS011;4998;51.024;13.828;2022-10-10T02:18:19;3.50;;;2.00;;
9918;SDS011;4998;51.024;13.828;2022-10-10T02:20:47;3.70;;;1.90;;
9918;SDS011;4998;51.024;13.828;2022-10-10T02:23:18;4.00;;;2.10;;
9918;SDS011;4998;51.024;13.828;2022-10-10T02:25:48;3.77;;;2.00;;
9918;SDS011;4998;51.024;13.828;2022-10-10T02:28:19;2.30;;;1.90;;
9918;SDS011;4998;51.024;13.828;2022-10-10T02:30:51;2.37;;;1.90;;
9918;SDS011;4998;51.024;13.828;2022-10-10T02:33:22;2.47;;;2.00;;
9918;SDS011;4998;51.024;13.828;2022-10-10T02:35:53;3.03;;;2.00;;
9918;SDS011;4998;51.024;13.828;2022-10-10T02:38:21;4.20;;;1.70;;
9918;SDS011;4998;51.024;13.828;2022-10-10T02:40:48;5.53;;;2.07;;
9918;SDS011;4998;51.024;13.828;2022-10-10T02:43:15;5.97;;;2.17;;
9918;SDS011;4998;51.024;13.828;2022-10-10T02:45:44;3.90;;;2.10;;
9918;SDS011;4998;51.024;13.828;2022-10-10T02:48:13;2.60;;;1.70;;
9918;SDS011;4998;51.024;13.828;2022-10-10T02:50:40;1.67;;;1.57;;
9918;SDS011;4998;51.024;13.828;2022-10-10T02:53:07;2.63;;;2.00;;
9918;SDS011;4998;51.024;13.828;2022-10-10T02:55:34;4.00;;;1.97;;
9918;SDS011;4998;51.024;13.828;2022-10-10T02:58:01;2.30;;;1.70;;
9918;SDS011;4998;51.024;13.828;2022-10-10T03:00:28;4.40;;;1.73;;
9918;SDS011;4998;51.024;13.828;2022-10-10T03:02:55;2.07;;;1.80;;
9918;SDS011;4998;51.024;13.828;2022-10-10T03:05:23;3.07;;;1.80;;
9918;SDS011;4998;51.024;13.828;2022-10-10T03:07:50;1.70;;;1.60;;
9918;SDS011;4998;51.024;13.828;2022-10-10T03:10:17;1.90;;;1.70;;
9918;SDS011;4998;51.024;13.828;2022-10-10T03:12:44;2.60;;;1.80;;
9918;SDS011;4998;51.024;13.828;2022-10-10T03:15:11;1.90;;;1.77;;
9918;SDS011;4998;51.024;13.828;2022-10-10T03:17:37;1.80;;;1.70;;
9918;SDS011;4998;51.024;13.828;2022-10-10T03:20:05;2.13;;;1.93;;
9918;SDS011;4998;51.024;13.828;2022-10-10T03:22:34;3.00;;;1.90;;
9918;SDS011;4998;51.024;13.828;2022-10-10T03:25:01;2.13;;;1.93;;
9918;SDS011;4998;51.024;13.828;2022-10-10T03:27:28;2.40;;;1.77;;
9918;SDS011;4998;51.024;13.828;2022-10-10T03:29:55;3.30;;;2.30;;
9918;SDS011;4998;51.024;13.828;2022-10-10T03:32:22;3.77;;;1.90;;
9918;SDS011;4998;51.024;13.828;2022-10-10T03:34:48;2.90;;;2.23;;
9918;SDS011;4998;51.024;13.828;2022-10-10T03:37:15;3.77;;;1.77;;
9918;SDS011;4998;51.024;13.828;2022-10-10T03:39:43;2.73;;;1.93;;
9918;SDS011;4998;51.024;13.828;2022-10-10T03:42:10;18.73;;;2.33;;
9918;SDS011;4998;51.024;13.828;2022-10-10T03:44:37;3.20;;;1.83;;
9918;SDS011;4998;51.024;13.828;2022-10-10T03:47:04;3.13;;;1.80;;
9918;SDS011;4998;51.024;13.828;2022-10-10T03:49:31;1.83;;;1.70;;
9918;SDS011;4998;51.024;13.828;2022-10-10T03:51:58;3.93;;;2.30;;
9918;SDS011;4998;51.024;13.828;2022-10-10T03:54:25;2.27;;;1.73;;
9918;SDS011;4998;51.024;13.828;2022-10-10T03:56:53;2.90;;;1.67;;
9918;SDS011;4998;51.024;13.828;2022-10-10T03:59:20;12.30;;;2.13;;
9918;SDS011;4998;51.024;13.828;2022-10-10T04:01:47;2.33;;;1.87;;
9918;SDS011;4998;51.024;13.828;2022-10-10T04:04:14;2.20;;;1.70;;
9918;SDS011;4998;51.024;13.828;2022-10-10T04:06:41;3.77;;;2.50;;
9918;SDS011;4998;51.024;13.828;2022-10-10T04:09:08;4.17;;;2.00;;
9918;SDS011;4998;51.024;13.828;2022-10-10T04:11:35;5.73;;;1.90;;
9918;SDS011;4998;51.024;13.828;2022-10-10T04:14:04;13.60;;;2.10;;
9918;SDS011;4998;51.024;13.828;2022-10-10T04:16:30;4.03;;;1.90;;
9918;SDS011;4998;51.024;13.828;2022-10-10T04:18:57;4.17;;;1.90;;
9918;SDS011;4998;51.024;13.828;2022-10-10T04:21:24;2.10;;;1.90;;
9918;SDS011;4998;51.024;13.828;2022-10-10T04:23:51;2.33;;;1.90;;
9918;SDS011;4998;51.024;13.828;2022-10-10T04:26:18;2.83;;;1.97;;
9918;SDS011;4998;51.024;13.828;2022-10-10T04:28:45;3.67;;;1.80;;
9918;SDS011;4998;51.024;13.828;2022-10-10T04:31:13;3.87;;;2.40;;
9918;SDS011;4998;51.024;13.828;2022-10-10T04:33:40;1.80;;;1.67;;
9918;SDS011;4998;51.024;13.828;2022-10-10T04:36:07;2.00;;;1.50;;
9918;SDS011;4998;51.024;13.828;2022-10-10T04:38:34;2.20;;;1.87;;
9918;SDS011;4998;51.024;13.828;2022-10-10T04:41:01;2.33;;;1.80;;
9918;SDS011;4998;51.024;13.828;2022-10-10T04:43:28;2.93;;;1.87;;
9918;SDS011;4998;51.024;13.828;2022-10-10T04:45:55;2.63;;;1.93;;
9918;SDS011;4998;51.024;13.828;2022-10-10T04:48:23;2.50;;;2.10;;
9918;SDS011;4998;51.024;13.828;2022-10-10T04:50:51;2.30;;;1.77;;
9918;SDS011;4998;51.024;13.828;2022-10-10T04:53:18;2.80;;;1.93;;
9918;SDS011;4998;51.024;13.828;2022-10-10T04:55:45;2.47;;;1.90;;
9918;SDS011;4998;51.024;13.828;2022-10-10T04:58:12;2.70;;;1.90;;
9918;SDS011;4998;51.024;13.828;2022-10-10T05:00:38;2.50;;;1.70;;
9918;SDS011;4998;51.024;13.828;2022-10-10T05:03:06;2.23;;;1.97;;
9918;SDS011;4998;51.024;13.828;2022-10-10T05:05:37;3.23;;;1.70;;
9918;SDS011;4998;51.024;13.828;2022-10-10T05:08:04;3.00;;;1.77;;
9918;SDS011;4998;51.024;13.828;2022-10-10T05:10:33;2.83;;;1.97;;
9918;SDS011;4998;51.024;13.828;2022-10-10T05:13:02;1.90;;;1.80;;
9918;SDS011;4998;51.024;13.828;2022-10-10T05:15:30;2.20;;;2.00;;
9918;SDS011;4998;51.024;13.828;2022-10-10T05:17:59;3.10;;;2.40;;
9918;SDS011;4998;51.024;13.828;2022-10-10T05:20:26;2.53;;;1.83;;
9918;SDS011;4998;51.024;13.828;2022-10-10T05:22:54;3.50;;;2.60;;
9918;SDS011;4998;51.024;13.828;2022-10-10T05:25:21;2.10;;;1.90;;
9918;SDS011;4998;51.024;13.828;2022-10-10T05:27:48;3.27;;;1.87;;
9918;SDS011;4998;51.024;13.828;2022-10-10T05:30:15;3.20;;;2.10;;
9918;SDS011;4998;51.024;13.828;2022-10-10T05:32:42;4.00;;;2.10;;
9918;SDS011;4998;51.024;13.828;2022-10-10T05:35:09;4.30;;;2.20;;
9918;SDS011;4998;51.024;13.828;2022-10-10T05:37:36;2.80;;;2.10;;
9918;SDS011;4998;51.024;13.828;2022-10-10T05:40:05;4.27;;;2.23;;
9918;SDS011;4998;51.024;13.828;2022-10-10T05:42:33;3.80;;;2.10;;
9918;SDS011;4998;51.024;13.828;2022-10-10T05:44:59;2.50;;;1.77;;
9918;SDS011;4998;51.024;13.828;2022-10-10T05:47:26;4.27;;;2.20;;
9918;SDS011;4998;51.024;13.828;2022-10-10T05:49:53;2.27;;;1.80;;
9918;SDS011;4998;51.024;13.828;2022-10-10T05:52:20;1.77;;;1.67;;
9918;SDS011;4998;51.024;13.828;2022-10-10T05:54:47;2.97;;;2.20;;
9918;SDS011;4998;51.024;13.828;2022-10-10T05:57:16;2.13;;;1.90;;
9918;SDS011;4998;51.024;13.828;2022-10-10T05:59:43;3.67;;;1.70;;
9918;SDS011;4998;51.024;13.828;2022-10-10T06:02:10;2.60;;;1.97;;
9918;SDS011;4998;51.024;13.828;2022-10-10T06:04:37;2.40;;;1.80;;
9918;SDS011;4998;51.024;13.828;2022-10-10T06:07:05;4.60;;;2.30;;
9918;SDS011;4998;51.024;13.828;2022-10-10T06:09:32;1.90;;;1.77;;
9918;SDS011;4998;51.024;13.828;2022-10-10T06:11:58;3.27;;;2.07;;
9918;SDS011;4998;51.024;13.828;2022-10-10T06:14:27;2.53;;;1.90;;
9918;SDS011;4998;51.024;13.828;2022-10-10T06:16:54;2.83;;;2.20;;
9918;SDS011;4998;51.024;13.828;2022-10-10T06:19:20;2.87;;;2.10;;
9918;SDS011;4998;51.024;13.828;2022-10-10T06:21:48;2.27;;;2.07;;
9918;SDS011;4998;51.024;13.828;2022-10-10T06:24:15;5.70;;;2.07;;
9918;SDS011;4998;51.024;13.828;2022-10-10T06:26:41;2.00;;;1.80;;
9918;SDS011;4998;51.024;13.828;2022-10-10T06:29:08;4.40;;;2.40;;
9918;SDS011;4998;51.024;13.828;2022-10-10T06:31:37;2.50;;;2.00;;
9918;SDS011;4998;51.024;13.828;2022-10-10T06:34:05;4.60;;;1.93;;
9918;SDS011;4998;51.024;13.828;2022-10-10T06:36:32;2.93;;;2.03;;
9918;SDS011;4998;51.024;13.828;2022-10-10T06:38:59;2.97;;;2.00;;
9918;SDS011;4998;51.024;13.828;2022-10-10T06:41:26;2.60;;;2.00;;
9918;SDS011;4998;51.024;13.828;2022-10-10T06:43:53;2.43;;;1.97;;
9918;SDS011;4998;51.024;13.828;2022-10-10T06:46:20;2.10;;;1.90;;
9918;SDS011;4998;51.024;13.828;2022-10-10T06:48:48;2.30;;;2.10;;
9918;SDS011;4998;51.024;13.828;2022-10-10T06:51:15;3.43;;;2.03;;
9918;SDS011;4998;51.024;13.828;2022-10-10T06:53:43;3.27;;;1.93;;
9918;SDS011;4998;51.024;13.828;2022-10-10T06:56:10;2.10;;;2.00;;
9918;SDS011;4998;51.024;13.828;2022-10-10T06:58:41;4.73;;;2.23;;
9918;SDS011;4998;51.024;13.828;2022-10-10T07:01:09;2.90;;;1.90;;
9918;SDS011;4998;51.024;13.828;2022-10-10T07:03:36;2.17;;;2.00;;
9918;SDS011;4998;51.024;13.828;2022-10-10T07:06:06;3.27;;;1.97;;
9918;SDS011;4998;51.024;13.828;2022-10-10T07:08:35;2.30;;;1.87;;
9918;SDS011;4998;51.024;13.828;2022-10-10T07:11:02;4.57;;;2.03;;
9918;SDS011;4998;51.024;13.828;2022-10-10T07:13:31;3.30;;;2.13;;
9918;SDS011;4998;51.024;13.828;2022-10-10T07:15:58;2.30;;;2.10;;
9918;SDS011;4998;51.024;13.828;2022-10-10T07:18:25;3.00;;;2.00;;
9918;SDS011;4998;51.024;13.828;2022-10-10T07:20:54;1.80;;;1.60;;
9918;SDS011;4998;51.024;13.828;2022-10-10T07:23:22;3.33;;;1.90;;
9918;SDS011;4998;51.024;13.828;2022-10-10T07:25:49;3.27;;;2.20;;
9918;SDS011;4998;51.024;13.828;2022-10-10T07:28:17;4.13;;;2.17;;
9918;SDS011;4998;51.024;13.828;2022-10-10T07:30:44;2.80;;;2.20;;
9918;SDS011;4998;51.024;13.828;2022-10-10T07:33:12;2.27;;;1.70;;
9918;SDS011;4998;51.024;13.828;2022-10-10T07:35:40;2.17;;;1.77;;
9918;SDS011;4998;51.024;13.828;2022-10-10T07:38:09;3.60;;;1.80;;
9918;SDS011;4998;51.024;13.828;2022-10-10T07:40:39;2.73;;;1.90;;
9918;SDS011;4998;51.024;13.828;2022-10-10T07:43:06;2.30;;;1.83;;
9918;SDS011;4998;51.024;13.828;2022-10-10T07:45:33;2.53;;;2.00;;
9918;SDS011;4998;51.024;13.828;2022-10-10T07:48:00;3.03;;;1.90;;
9918;SDS011;4998;51.024;13.828;2022-10-10T07:50:27;2.43;;;1.70;;
9918;SDS011;4998;51.024;13.828;2022-10-10T07:52:54;2.40;;;1.87;;
9918;SDS011;4998;51.024;13.828;2022-10-10T07:55:21;2.03;;;1.90;;
9918;SDS011;4998;51.024;13.828;2022-10-10T07:57:49;1.70;;;1.60;;
9918;SDS011;4998;51.024;13.828;2022-10-10T08:00:16;3.67;;;2.07;;
9918;SDS011;4998;51.024;13.828;2022-10-10T08:02:43;2.60;;;2.20;;
9918;SDS011;4998;51.024;13.828;2022-10-10T08:05:10;2.47;;;1.90;;
9918;SDS011;4998;51.024;13.828;2022-10-10T08:07:37;4.43;;;1.80;;
9918;SDS011;4998;51.024;13.828;2022-10-10T08:10:04;2.33;;;1.97;;
9918;SDS011;4998;51.024;13.828;2022-10-10T08:12:32;2.60;;;2.00;;
9918;SDS011;4998;51.024;13.828;2022-10-10T08:15:00;3.50;;;1.93;;
9918;SDS011;4998;51.024;13.828;2022-10-10T08:17:27;2.10;;;1.63;;
9918;SDS011;4998;51.024;13.828;2022-10-10T08:19:54;2.60;;;1.90;;
9918;SDS011;4998;51.024;13.828;2022-10-10T08:22:21;2.00;;;1.90;;
9918;SDS011;4998;51.024;13.828;2022-10-10T08:24:48;3.40;;;1.93;;
9918;SDS011;4998;51.024;13.828;2022-10-10T08:27:15;3.20;;;1.93;;
9918;SDS011;4998;51.024;13.828;2022-10-10T08:29:43;3.40;;;2.20;;
9918;SDS011;4998;51.024;13.828;2022-10-10T08:32:11;2.10;;;1.90;;
9918;SDS011;4998;51.024;13.828;2022-10-10T08:34:38;3.67;;;2.00;;
9918;SDS011;4998;51.024;13.828;2022-10-10T08:37:05;2.37;;;2.17;;
9918;SDS011;4998;51.024;13.828;2022-10-10T08:39:32;2.10;;;2.00;;
9918;SDS011;4998;51.024;13.828;2022-10-10T08:41:59;2.80;;;1.80;;
9918;SDS011;4998;51.024;13.828;2022-10-10T08:44:28;2.40;;;2.17;;
9918;SDS011;4998;51.024;13.828;2022-10-10T08:47:03;2.80;;;1.97;;
9918;SDS011;4998;51.024;13.828;2022-10-10T08:49:38;2.80;;;2.00;;
9918;SDS011;4998;51.024;13.828;2022-10-10T08:52:11;4.00;;;2.20;;
9918;SDS011;4998;51.024;13.828;2022-10-10T08:54:43;4.97;;;1.90;;
9918;SDS011;4998;51.024;13.828;2022-10-10T08:57:16;2.73;;;1.90;;
9918;SDS011;4998;51.024;13.828;2022-10-10T08:59:49;2.80;;;1.90;;
9918;SDS011;4998;51.024;13.828;2022-10-10T09:02:31;3.60;;;2.03;;
9918;SDS011;4998;51.024;13.828;2022-10-10T09:05:05;3.27;;;2.20;;
9918;SDS011;4998;51.024;13.828;2022-10-10T09:07:42;2.47;;;2.27;;
9918;SDS011;4998;51.024;13.828;2022-10-10T09:10:27;2.03;;;1.87;;
9918;SDS011;4998;51.024;13.828;2022-10-10T09:13:00;3.27;;;2.07;;
9918;SDS011;4998;51.024;13.828;2022-10-10T09:15:34;2.93;;;2.30;;
9918;SDS011;4998;51.024;13.828;2022-10-10T09:18:09;2.90;;;2.30;;
9918;SDS011;4998;51.024;13.828;2022-10-10T09:20:44;2.13;;;2.03;;
9918;SDS011;4998;51.024;13.828;2022-10-10T09:23:19;2.13;;;1.90;;
9918;SDS011;4998;51.024;13.828;2022-10-10T09:25:50;2.53;;;1.87;;
9918;SDS011;4998;51.024;13.828;2022-10-10T09:28:25;3.03;;;2.20;;
9918;SDS011;4998;51.024;13.828;2022-10-10T09:31:00;3.33;;;1.93;;
9918;SDS011;4998;51.024;13.828;2022-10-10T09:33:31;2.70;;;2.00;;
9918;SDS011;4998;51.024;13.828;2022-10-10T09:36:05;3.40;;;2.00;;
9918;SDS011;4998;51.024;13.828;2022-10-10T09:38:40;4.20;;;1.73;;
9918;SDS011;4998;51.024;13.828;2022-10-10T09:41:13;4.43;;;2.00;;
9918;SDS011;4998;51.024;13.828;2022-10-10T09:43:44;4.77;;;2.20;;
9918;SDS011;4998;51.024;13.828;2022-10-10T09:46:12;2.53;;;2.33;;
9918;SDS011;4998;51.024;13.828;2022-10-10T09:48:40;5.87;;;2.40;;
9918;SDS011;4998;51.024;13.828;2022-10-10T09:51:11;2.77;;;2.40;;
9918;SDS011;4998;51.024;13.828;2022-10-10T09:53:39;3.70;;;2.00;;
9918;SDS011;4998;51.024;13.828;2022-10-10T09:56:07;2.87;;;2.67;;
9918;SDS011;4998;51.024;13.828;2022-10-10T09:58:43;2.30;;;1.83;;
9918;SDS011;4998;51.024;13.828;2022-10-10T10:01:12;2.63;;;2.40;;
9918;SDS011;4998;51.024;13.828;2022-10-10T10:03:42;3.03;;;2.50;;
9918;SDS011;4998;51.024;13.828;2022-10-10T10:08:41;4.03;;;2.20;;
9918;SDS011;4998;51.024;13.828;2022-10-10T10:11:20;2.20;;;2.00;;
9918;SDS011;4998;51.024;13.828;2022-10-10T10:13:53;3.40;;;2.30;;
9918;SDS011;4998;51.024;13.828;2022-10-10T10:16:28;3.13;;;2.13;;
9918;SDS011;4998;51.024;13.828;2022-10-10T10:18:57;2.67;;;2.10;;
9918;SDS011;4998;51.024;13.828;2022-10-10T10:21:25;3.93;;;2.30;;
9918;SDS011;4998;51.024;13.828;2022-10-10T10:23:54;4.73;;;2.30;;
9918;SDS011;4998;51.024;13.828;2022-10-10T10:26:24;2.60;;;2.03;;
9918;SDS011;4998;51.024;13.828;2022-10-10T10:28:52;2.50;;;2.30;;
9918;SDS011;4998;51.024;13.828;2022-10-10T10:31:33;2.73;;;2.10;;
9918;SDS011;4998;51.024;13.828;2022-10-10T10:34:19;2.47;;;1.73;;
9918;SDS011;4998;51.024;13.828;2022-10-10T10:37:10;5.00;;;2.50;;
9918;SDS011;4998;51.024;13.828;2022-10-10T10:39:53;3.80;;;2.20;;
9918;SDS011;4998;51.024;13.828;2022-10-10T10:42:42;2.70;;;2.03;;
9918;SDS011;4998;51.024;13.828;2022-10-10T10:45:25;2.87;;;2.10;;
9918;SDS011;4998;51.024;13.828;2022-10-10T10:48:02;4.43;;;2.20;;
9918;SDS011;4998;51.024;13.828;2022-10-10T10:50:40;4.67;;;2.80;;
9918;SDS011;4998;51.024;13.828;2022-10-10T10:53:14;3.57;;;2.37;;
9918;SDS011;4998;51.024;13.828;2022-10-10T10:55:50;5.57;;;2.40;;
9918;SDS011;4998;51.024;13.828;2022-10-10T10:58:40;2.70;;;2.20;;
9918;SDS011;4998;51.024;13.828;2022-10-10T11:01:20;2.87;;;1.90;;
9918;SDS011;4998;51.024;13.828;2022-10-10T11:03:54;2.90;;;2.00;;
9918;SDS011;4998;51.024;13.828;2022-10-10T11:09:15;2.77;;;2.20;;
9918;SDS011;4998;51.024;13.828;2022-10-10T11:11:58;3.20;;;2.53;;
9918;SDS011;4998;51.024;13.828;2022-10-10T11:14:39;3.10;;;2.00;;
9918;SDS011;4998;51.024;13.828;2022-10-10T11:17:17;2.27;;;2.10;;
9918;SDS011;4998;51.024;13.828;2022-10-10T11:19:49;5.03;;;2.27;;
9918;SDS011;4998;51.024;13.828;2022-10-10T11:22:23;5.53;;;2.80;;
9918;SDS011;4998;51.024;13.828;2022-10-10T11:24:55;2.77;;;2.17;;
9918;SDS011;4998;51.024;13.828;2022-10-10T11:27:27;5.47;;;2.50;;
9918;SDS011;4998;51.024;13.828;2022-10-10T11:30:02;2.33;;;2.13;;
9918;SDS011;4998;51.024;13.828;2022-10-10T11:32:35;2.80;;;2.27;;
9918;SDS011;4998;51.024;13.828;2022-10-10T11:35:20;3.47;;;2.37;;
9918;SDS011;4998;51.024;13.828;2022-10-10T11:38:08;2.43;;;2.23;;
9918;SDS011;4998;51.024;13.828;2022-10-10T11:40:47;2.10;;;1.90;;
9918;SDS011;4998;51.024;13.828;2022-10-10T11:43:21;2.03;;;1.80;;
9918;SDS011;4998;51.024;13.828;2022-10-10T11:45:58;2.90;;;2.57;;
9918;SDS011;4998;51.024;13.828;2022-10-10T11:48:31;4.83;;;2.33;;
9918;SDS011;4998;51.024;13.828;2022-10-10T11:51:10;2.40;;;2.20;;
9918;SDS011;4998;51.024;13.828;2022-10-10T11:53:44;2.60;;;2.30;;
9918;SDS011;4998;51.024;13.828;2022-10-10T11:56:18;3.20;;;2.60;;
9918;SDS011;4998;51.024;13.828;2022-10-10T11:58:52;8.00;;;2.40;;
9918;SDS011;4998;51.024;13.828;2022-10-10T12:01:24;3.77;;;2.10;;
9918;SDS011;4998;51.024;13.828;2022-10-10T12:03:54;3.83;;;2.60;;
9918;SDS011;4998;51.024;13.828;2022-10-10T12:06:22;2.87;;;2.10;;
9918;SDS011;4998;51.024;13.828;2022-10-10T12:08:55;2.97;;;2.37;;
9918;SDS011;4998;51.024;13.828;2022-10-10T12:11:28;4.90;;;2.47;;
9918;SDS011;4998;51.024;13.828;2022-10-10T12:14:00;3.93;;;2.67;;
9918;SDS011;4998;51.024;13.828;2022-10-10T12:16:28;5.00;;;3.00;;
9918;SDS011;4998;51.024;13.828;2022-10-10T12:19:00;3.90;;;2.20;;
9918;SDS011;4998;51.024;13.828;2022-10-10T12:21:30;3.43;;;2.60;;
9918;SDS011;4998;51.024;13.828;2022-10-10T12:24:02;3.60;;;2.40;;
9918;SDS011;4998;51.024;13.828;2022-10-10T12:29:40;2.50;;;2.30;;
9918;SDS011;4998;51.024;13.828;2022-10-10T12:32:09;2.73;;;2.53;;
9918;SDS011;4998;51.024;13.828;2022-10-10T12:34:55;5.07;;;2.40;;
9918;SDS011;4998;51.024;13.828;2022-10-10T12:37:24;3.60;;;2.50;;
9918;SDS011;4998;51.024;13.828;2022-10-10T12:43:00;3.23;;;2.27;;
9918;SDS011;4998;51.024;13.828;2022-10-10T12:46:06;3.90;;;2.60;;
9918;SDS011;4998;51.024;13.828;2022-10-10T12:48:39;4.90;;;2.63;;
9918;SDS011;4998;51.024;13.828;2022-10-10T12:51:12;5.20;;;2.73;;
9918;SDS011;4998;51.024;13.828;2022-10-10T12:53:46;3.37;;;2.93;;
9918;SDS011;4998;51.024;13.828;2022-10-10T12:56:21;4.13;;;2.40;;
9918;SDS011;4998;51.024;13.828;2022-10-10T12:58:58;3.30;;;2.80;;
9918;SDS011;4998;51.024;13.828;2022-10-10T13:01:28;3.23;;;2.50;;
9918;SDS011;4998;51.024;13.828;2022-10-10T13:03:58;2.80;;;2.33;;
9918;SDS011;4998;51.024;13.828;2022-10-10T13:06:27;3.83;;;2.90;;
9918;SDS011;4998;51.024;13.828;2022-10-10T13:08:58;2.93;;;2.57;;
9918;SDS011;4998;51.024;13.828;2022-10-10T13:11:27;3.87;;;2.57;;
9918;SDS011;4998;51.024;13.828;2022-10-10T13:13:55;4.90;;;2.73;;
9918;SDS011;4998;51.024;13.828;2022-10-10T13:16:23;5.30;;;2.40;;
9918;SDS011;4998;51.024;13.828;2022-10-10T13:18:53;4.20;;;2.53;;
9918;SDS011;4998;51.024;13.828;2022-10-10T13:21:22;6.37;;;3.47;;
9918;SDS011;4998;51.024;13.828;2022-10-10T13:23:51;3.80;;;2.60;;
9918;SDS011;4998;51.024;13.828;2022-10-10T13:26:22;4.73;;;2.40;;
9918;SDS011;4998;51.024;13.828;2022-10-10T13:28:53;3.03;;;2.23;;
9918;SDS011;4998;51.024;13.828;2022-10-10T13:31:23;3.70;;;2.63;;
9918;SDS011;4998;51.024;13.828;2022-10-10T13:33:55;5.30;;;2.30;;
9918;SDS011;4998;51.024;13.828;2022-10-10T13:36:26;2.90;;;2.40;;
9918;SDS011;4998;51.024;13.828;2022-10-10T13:38:53;4.97;;;2.70;;
9918;SDS011;4998;51.024;13.828;2022-10-10T13:41:21;3.00;;;2.47;;
9918;SDS011;4998;51.024;13.828;2022-10-10T13:43:49;3.67;;;2.50;;
9918;SDS011;4998;51.024;13.828;2022-10-10T13:46:18;5.50;;;3.10;;
9918;SDS011;4998;51.024;13.828;2022-10-10T13:48:47;6.20;;;2.40;;
9918;SDS011;4998;51.024;13.828;2022-10-10T13:51:17;2.83;;;2.27;;
9918;SDS011;4998;51.024;13.828;2022-10-10T13:53:48;4.83;;;2.60;;
9918;SDS011;4998;51.024;13.828;2022-10-10T13:56:18;3.03;;;2.67;;
9918;SDS011;4998;51.024;13.828;2022-10-10T13:58:54;6.00;;;2.60;;
9918;SDS011;4998;51.024;13.828;2022-10-10T14:01:28;4.50;;;2.43;;
9918;SDS011;4998;51.024;13.828;2022-10-10T14:03:59;3.60;;;2.67;;
9918;SDS011;4998;51.024;13.828;2022-10-10T14:06:32;4.13;;;2.70;;
9918;SDS011;4998;51.024;13.828;2022-10-10T14:09:05;3.43;;;2.43;;
9918;SDS011;4998;51.024;13.828;2022-10-10T14:11:37;8.40;;;2.53;;
9918;SDS011;4998;51.024;13.828;2022-10-10T14:14:12;4.10;;;2.60;;
9918;SDS011;4998;51.024;13.828;2022-10-10T14:16:41;11.20;;;2.80;;
9918;SDS011;4998;51.024;13.828;2022-10-10T14:19:12;3.83;;;2.93;;
9918;SDS011;4998;51.024;13.828;2022-10-10T14:21:43;4.83;;;2.90;;
9918;SDS011;4998;51.024;13.828;2022-10-10T14:24:10;3.97;;;2.70;;
9918;SDS011;4998;51.024;13.828;2022-10-10T14:26:37;5.53;;;2.73;;
9918;SDS011;4998;51.024;13.828;2022-10-10T14:29:04;3.10;;;2.80;;
9918;SDS011;4998;51.024;13.828;2022-10-10T14:31:36;3.13;;;2.70;;
9918;SDS011;4998;51.024;13.828;2022-10-10T14:34:03;4.33;;;2.53;;
9918;SDS011;4998;51.024;13.828;2022-10-10T14:36:30;3.23;;;2.57;;
9918;SDS011;4998;51.024;13.828;2022-10-10T14:38:58;2.47;;;2.27;;
9918;SDS011;4998;51.024;13.828;2022-10-10T14:41:25;3.20;;;2.90;;
9918;SDS011;4998;51.024;13.828;2022-10-10T14:43:52;3.73;;;2.70;;
9918;SDS011;4998;51.024;13.828;2022-10-10T14:46:19;4.20;;;3.03;;
9918;SDS011;4998;51.024;13.828;2022-10-10T14:48:46;4.20;;;2.77;;
9918;SDS011;4998;51.024;13.828;2022-10-10T14:51:13;7.80;;;3.50;;
9918;SDS011;4998;51.024;13.828;2022-10-10T14:53:40;6.70;;;4.10;;
9918;SDS011;4998;51.024;13.828;2022-10-10T14:56:09;8.70;;;4.33;;
9918;SDS011;4998;51.024;13.828;2022-10-10T14:58:37;4.73;;;3.10;;
9918;SDS011;4998;51.024;13.828;2022-10-10T15:01:04;5.50;;;3.60;;
9918;SDS011;4998;51.024;13.828;2022-10-10T15:03:31;4.83;;;3.77;;
9918;SDS011;4998;51.024;13.828;2022-10-10T15:05:58;3.83;;;3.03;;
9918;SDS011;4998;51.024;13.828;2022-10-10T15:08:25;8.10;;;3.10;;
9918;SDS011;4998;51.024;13.828;2022-10-10T15:10:51;3.30;;;2.77;;
9918;SDS011;4998;51.024;13.828;2022-10-10T15:13:22;11.07;;;3.10;;
9918;SDS011;4998;51.024;13.828;2022-10-10T15:15:48;4.67;;;2.87;;
9918;SDS011;4998;51.024;13.828;2022-10-10T15:18:15;6.50;;;2.70;;
9918;SDS011;4998;51.024;13.828;2022-10-10T15:20:42;6.63;;;2.83;;
9918;SDS011;4998;51.024;13.828;2022-10-10T15:23:09;4.00;;;2.70;;
9918;SDS011;4998;51.024;13.828;2022-10-10T15:25:40;3.93;;;3.27;;
9918;SDS011;4998;51.024;13.828;2022-10-10T15:28:08;5.20;;;2.90;;
9918;SDS011;4998;51.024;13.828;2022-10-10T15:30:36;8.90;;;3.30;;